sensor_id;sensor_type;location;lat;lon;timestamp;temperature;humidity
11818;DHT22;5966;52.402;5.322;2022-11-12T00:01:12;8.00;99.90
11818;DHT22;5966;52.402;5.322;2022-11-12T00:03:40;8.00;99.90
11818;DHT22;5966;52.402;5.322;2022-11-12T00:06:08;8.00;99.90
11818;DHT22;5966;52.402;5.322;2022-11-12T00:08:37;8.00;99.90
11818;DHT22;5966;52.402;5.322;2022-11-12T00:11:05;8.00;99.90
11818;DHT22;5966;52.402;5.322;2022-11-12T00:13:33;8.00;99.90
11818;DHT22;5966;52.402;5.322;2022-11-12T00:16:00;8.10;99.90
11818;DHT22;5966;52.402;5.322;2022-11-12T00:18:28;8.10;99.90
11818;DHT22;5966;52.402;5.322;2022-11-12T00:20:56;8.20;99.90
11818;DHT22;5966;52.402;5.322;2022-11-12T00:23:24;8.20;99.90
11818;DHT22;5966;52.402;5.322;2022-11-12T00:25:59;8.30;99.90
11818;DHT22;5966;52.402;5.322;2022-11-12T00:28:27;8.30;99.90
11818;DHT22;5966;52.402;5.322;2022-11-12T00:31:07;8.30;99.90
11818;DHT22;5966;52.402;5.322;2022-11-12T00:33:38;8.30;99.90
11818;DHT22;5966;52.402;5.322;2022-11-12T00:36:06;8.30;99.90
11818;DHT22;5966;52.402;5.322;2022-11-12T00:38:34;8.30;99.90
11818;DHT22;5966;52.402;5.322;2022-11-12T00:41:04;8.30;99.90
11818;DHT22;5966;52.402;5.322;2022-11-12T00:43:32;8.30;99.90
11818;DHT22;5966;52.402;5.322;2022-11-12T00:46:00;8.20;99.90
11818;DHT22;5966;52.402;5.322;2022-11-12T00:48:27;8.20;99.90
11818;DHT22;5966;52.402;5.322;2022-11-12T00:51:00;8.10;99.90
11818;DHT22;5966;52.402;5.322;2022-11-12T00:53:28;8.10;99.90
11818;DHT22;5966;52.402;5.322;2022-11-12T00:55:59;8.10;99.90
11818;DHT22;5966;52.402;5.322;2022-11-12T00:58:29;8.10;99.90
11818;DHT22;5966;52.402;5.322;2022-11-12T01:01:03;8.20;99.90
11818;DHT22;5966;52.402;5.322;2022-11-12T01:03:30;8.20;99.90
11818;DHT22;5966;52.402;5.322;2022-11-12T01:06:01;8.20;99.90
11818;DHT22;5966;52.402;5.322;2022-11-12T01:08:29;8.20;99.90
11818;DHT22;5966;52.402;5.322;2022-11-12T01:11:04;8.10;99.90
11818;DHT22;5966;52.402;5.322;2022-11-12T01:13:34;8.10;99.90
11818;DHT22;5966;52.402;5.322;2022-11-12T01:16:11;8.10;99.90
11818;DHT22;5966;52.402;5.322;2022-11-12T01:18:40;8.10;99.90
11818;DHT22;5966;52.402;5.322;2022-11-12T01:21:08;8.00;99.90
11818;DHT22;5966;52.402;5.322;2022-11-12T01:23:38;8.00;99.90
11818;DHT22;5966;52.402;5.322;2022-11-12T01:26:07;8.00;99.90
11818;DHT22;5966;52.402;5.322;2022-11-12T01:28:37;8.00;99.90
11818;DHT22;5966;52.402;5.322;2022-11-12T01:31:16;7.90;99.90
11818;DHT22;5966;52.402;5.322;2022-11-12T01:33:46;7.90;99.90
11818;DHT22;5966;52.402;5.322;2022-11-12T01:36:16;7.80;99.90
11818;DHT22;5966;52.402;5.322;2022-11-12T01:38:45;7.70;99.90
11818;DHT22;5966;52.402;5.322;2022-11-12T01:41:15;7.70;99.90
11818;DHT22;5966;52.402;5.322;2022-11-12T01:43:45;7.70;99.90
11818;DHT22;5966;52.402;5.322;2022-11-12T01:46:17;7.70;99.90
11818;DHT22;5966;52.402;5.322;2022-11-12T01:48:49;7.60;99.90
11818;DHT22;5966;52.402;5.322;2022-11-12T01:51:19;7.60;99.90
11818;DHT22;5966;52.402;5.322;2022-11-12T01:53:50;7.70;99.90
11818;DHT22;5966;52.402;5.322;2022-11-12T01:56:21;7.70;99.90
11818;DHT22;5966;52.402;5.322;2022-11-12T01:58:55;7.70;99.90
11818;DHT22;5966;52.402;5.322;2022-11-12T02:01:25;7.70;99.90
11818;DHT22;5966;52.402;5.322;2022-11-12T02:03:53;7.70;99.90
11818;DHT22;5966;52.402;5.322;2022-11-12T02:06:22;7.70;99.90
11818;DHT22;5966;52.402;5.322;2022-11-12T02:08:50;7.70;99.90
11818;DHT22;5966;52.402;5.322;2022-11-12T02:11:20;7.70;99.90
11818;DHT22;5966;52.402;5.322;2022-11-12T02:13:51;7.60;99.90
11818;DHT22;5966;52.402;5.322;2022-11-12T02:16:30;7.60;99.90
11818;DHT22;5966;52.402;5.322;2022-11-12T02:18:59;7.60;99.90
11818;DHT22;5966;52.402;5.322;2022-11-12T02:21:29;7.60;99.90
11818;DHT22;5966;52.402;5.322;2022-11-12T02:23:58;7.60;99.90
11818;DHT22;5966;52.402;5.322;2022-11-12T02:26:29;7.60;99.90
11818;DHT22;5966;52.402;5.322;2022-11-12T02:28:58;7.70;99.90
11818;DHT22;5966;52.402;5.322;2022-11-12T02:31:26;7.70;99.90
11818;DHT22;5966;52.402;5.322;2022-11-12T02:33:54;7.70;99.90
11818;DHT22;5966;52.402;5.322;2022-11-12T02:36:22;7.80;99.90
11818;DHT22;5966;52.402;5.322;2022-11-12T02:38:51;7.80;99.90
11818;DHT22;5966;52.402;5.322;2022-11-12T02:41:19;7.80;99.90
11818;DHT22;5966;52.402;5.322;2022-11-12T02:43:47;7.90;99.90
11818;DHT22;5966;52.402;5.322;2022-11-12T02:46:15;7.90;99.90
11818;DHT22;5966;52.402;5.322;2022-11-12T02:48:43;8.00;99.90
11818;DHT22;5966;52.402;5.322;2022-11-12T02:51:11;8.00;99.90
11818;DHT22;5966;52.402;5.322;2022-11-12T02:53:39;8.10;99.90
11818;DHT22;5966;52.402;5.322;2022-11-12T02:56:08;8.10;99.90
11818;DHT22;5966;52.402;5.322;2022-11-12T02:58:36;8.20;99.90
11818;DHT22;5966;52.402;5.322;2022-11-12T03:01:04;8.20;99.90
11818;DHT22;5966;52.402;5.322;2022-11-12T03:03:32;8.30;99.90
11818;DHT22;5966;52.402;5.322;2022-11-12T03:06:00;8.30;99.90
11818;DHT22;5966;52.402;5.322;2022-11-12T03:08:28;8.30;99.90
11818;DHT22;5966;52.402;5.322;2022-11-12T03:10:56;8.30;99.90
11818;DHT22;5966;52.402;5.322;2022-11-12T03:13:25;8.30;99.90
11818;DHT22;5966;52.402;5.322;2022-11-12T03:15:58;8.40;99.90
11818;DHT22;5966;52.402;5.322;2022-11-12T03:18:26;8.40;99.90
11818;DHT22;5966;52.402;5.322;2022-11-12T03:20:54;8.40;99.90
11818;DHT22;5966;52.402;5.322;2022-11-12T03:23:22;8.50;99.90
11818;DHT22;5966;52.402;5.322;2022-11-12T03:25:50;8.50;99.90
11818;DHT22;5966;52.402;5.322;2022-11-12T03:28:18;8.50;99.90
11818;DHT22;5966;52.402;5.322;2022-11-12T03:30:47;8.60;99.90
11818;DHT22;5966;52.402;5.322;2022-11-12T03:33:15;8.50;99.90
11818;DHT22;5966;52.402;5.322;2022-11-12T03:35:43;8.50;99.90
11818;DHT22;5966;52.402;5.322;2022-11-12T03:38:11;8.60;99.90
11818;DHT22;5966;52.402;5.322;2022-11-12T03:40:39;8.60;99.90
11818;DHT22;5966;52.402;5.322;2022-11-12T03:43:07;8.60;99.90
11818;DHT22;5966;52.402;5.322;2022-11-12T03:45:35;8.60;99.90
11818;DHT22;5966;52.402;5.322;2022-11-12T03:48:05;8.60;99.90
11818;DHT22;5966;52.402;5.322;2022-11-12T03:50:33;8.60;99.90
11818;DHT22;5966;52.402;5.322;2022-11-12T03:53:00;8.60;99.90
11818;DHT22;5966;52.402;5.322;2022-11-12T03:55:29;8.60;99.90
11818;DHT22;5966;52.402;5.322;2022-11-12T03:57:57;8.60;99.90
11818;DHT22;5966;52.402;5.322;2022-11-12T04:00:27;8.60;99.90
11818;DHT22;5966;52.402;5.322;2022-11-12T04:02:56;8.60;99.90
11818;DHT22;5966;52.402;5.322;2022-11-12T04:05:25;8.60;99.90
11818;DHT22;5966;52.402;5.322;2022-11-12T04:08:13;8.60;99.90
11818;DHT22;5966;52.402;5.322;2022-11-12T04:10:59;8.70;99.90
11818;DHT22;5966;52.402;5.322;2022-11-12T04:13:27;8.70;99.90
11818;DHT22;5966;52.402;5.322;2022-11-12T04:15:56;8.70;99.90
11818;DHT22;5966;52.402;5.322;2022-11-12T04:18:38;8.70;99.90
11818;DHT22;5966;52.402;5.322;2022-11-12T04:21:29;8.70;99.90
11818;DHT22;5966;52.402;5.322;2022-11-12T04:24:14;8.70;99.90
11818;DHT22;5966;52.402;5.322;2022-11-12T04:26:56;8.70;99.90
11818;DHT22;5966;52.402;5.322;2022-11-12T04:29:24;8.70;99.90
11818;DHT22;5966;52.402;5.322;2022-11-12T04:32:09;8.70;99.90
11818;DHT22;5966;52.402;5.322;2022-11-12T04:34:37;8.70;99.90
11818;DHT22;5966;52.402;5.322;2022-11-12T04:37:06;8.70;99.90
11818;DHT22;5966;52.402;5.322;2022-11-12T04:39:34;8.80;99.90
11818;DHT22;5966;52.402;5.322;2022-11-12T04:42:03;8.80;99.90
11818;DHT22;5966;52.402;5.322;2022-11-12T04:44:48;8.80;99.90
11818;DHT22;5966;52.402;5.322;2022-11-12T04:47:31;8.80;99.90
11818;DHT22;5966;52.402;5.322;2022-11-12T04:50:00;8.80;99.90
11818;DHT22;5966;52.402;5.322;2022-11-12T04:52:30;8.80;99.90
11818;DHT22;5966;52.402;5.322;2022-11-12T04:54:58;8.80;99.90
11818;DHT22;5966;52.402;5.322;2022-11-12T04:57:26;8.80;99.90
11818;DHT22;5966;52.402;5.322;2022-11-12T04:59:54;8.80;99.90
11818;DHT22;5966;52.402;5.322;2022-11-12T05:02:22;8.80;99.90
11818;DHT22;5966;52.402;5.322;2022-11-12T05:04:50;8.80;99.90
11818;DHT22;5966;52.402;5.322;2022-11-12T05:07:18;8.80;99.90
11818;DHT22;5966;52.402;5.322;2022-11-12T05:09:47;8.80;99.90
11818;DHT22;5966;52.402;5.322;2022-11-12T05:12:15;8.80;99.90
11818;DHT22;5966;52.402;5.322;2022-11-12T05:14:43;8.90;99.90
11818;DHT22;5966;52.402;5.322;2022-11-12T05:17:11;8.90;99.90
11818;DHT22;5966;52.402;5.322;2022-11-12T05:19:38;8.90;99.90
11818;DHT22;5966;52.402;5.322;2022-11-12T05:22:08;8.90;99.90
11818;DHT22;5966;52.402;5.322;2022-11-12T05:24:54;8.90;99.90
11818;DHT22;5966;52.402;5.322;2022-11-12T05:27:22;8.90;99.90
11818;DHT22;5966;52.402;5.322;2022-11-12T05:29:49;8.90;99.90
11818;DHT22;5966;52.402;5.322;2022-11-12T05:32:17;8.90;99.90
11818;DHT22;5966;52.402;5.322;2022-11-12T05:34:45;8.90;99.90
11818;DHT22;5966;52.402;5.322;2022-11-12T05:37:15;9.00;99.90
11818;DHT22;5966;52.402;5.322;2022-11-12T05:39:43;9.00;99.90
11818;DHT22;5966;52.402;5.322;2022-11-12T05:42:13;9.00;99.90
11818;DHT22;5966;52.402;5.322;2022-11-12T05:44:40;9.00;99.90
11818;DHT22;5966;52.402;5.322;2022-11-12T05:47:08;9.10;99.90
11818;DHT22;5966;52.402;5.322;2022-11-12T05:49:36;9.10;99.90
11818;DHT22;5966;52.402;5.322;2022-11-12T05:52:04;9.10;99.90
11818;DHT22;5966;52.402;5.322;2022-11-12T05:54:32;9.10;99.90
11818;DHT22;5966;52.402;5.322;2022-11-12T05:57:00;9.10;99.90
11818;DHT22;5966;52.402;5.322;2022-11-12T05:59:29;9.10;99.90
11818;DHT22;5966;52.402;5.322;2022-11-12T06:01:57;9.00;99.90
11818;DHT22;5966;52.402;5.322;2022-11-12T06:04:25;9.00;99.90
11818;DHT22;5966;52.402;5.322;2022-11-12T06:06:53;8.90;99.90
11818;DHT22;5966;52.402;5.322;2022-11-12T06:09:21;8.90;99.90
11818;DHT22;5966;52.402;5.322;2022-11-12T06:11:49;8.90;99.90
11818;DHT22;5966;52.402;5.322;2022-11-12T06:14:16;8.80;99.90
11818;DHT22;5966;52.402;5.322;2022-11-12T06:16:46;8.80;99.90
11818;DHT22;5966;52.402;5.322;2022-11-12T06:19:13;8.80;99.90
11818;DHT22;5966;52.402;5.322;2022-11-12T06:21:41;8.70;99.90
11818;DHT22;5966;52.402;5.322;2022-11-12T06:24:09;8.70;99.90
11818;DHT22;5966;52.402;5.322;2022-11-12T06:26:37;8.70;99.90
11818;DHT22;5966;52.402;5.322;2022-11-12T06:29:05;8.60;99.90
11818;DHT22;5966;52.402;5.322;2022-11-12T06:31:33;8.60;99.90
11818;DHT22;5966;52.402;5.322;2022-11-12T06:34:02;8.60;99.90
11818;DHT22;5966;52.402;5.322;2022-11-12T06:36:30;8.50;99.90
11818;DHT22;5966;52.402;5.322;2022-11-12T06:38:58;8.50;99.90
11818;DHT22;5966;52.402;5.322;2022-11-12T06:41:25;8.50;99.90
11818;DHT22;5966;52.402;5.322;2022-11-12T06:43:53;8.50;99.90
11818;DHT22;5966;52.402;5.322;2022-11-12T06:46:21;8.50;99.90
11818;DHT22;5966;52.402;5.322;2022-11-12T06:48:49;8.50;99.90
11818;DHT22;5966;52.402;5.322;2022-11-12T06:51:19;8.50;99.90
11818;DHT22;5966;52.402;5.322;2022-11-12T06:53:47;8.50;99.90
11818;DHT22;5966;52.402;5.322;2022-11-12T06:56:17;8.50;99.90
11818;DHT22;5966;52.402;5.322;2022-11-12T06:58:45;8.50;99.90
11818;DHT22;5966;52.402;5.322;2022-11-12T07:01:14;8.40;99.90
11818;DHT22;5966;52.402;5.322;2022-11-12T07:03:43;8.40;99.90
11818;DHT22;5966;52.402;5.322;2022-11-12T07:06:13;8.40;99.90
11818;DHT22;5966;52.402;5.322;2022-11-12T07:08:42;8.30;99.90
11818;DHT22;5966;52.402;5.322;2022-11-12T07:11:10;8.30;99.90
11818;DHT22;5966;52.402;5.322;2022-11-12T07:13:38;8.20;99.90
11818;DHT22;5966;52.402;5.322;2022-11-12T07:16:07;8.10;99.90
11818;DHT22;5966;52.402;5.322;2022-11-12T07:18:36;8.10;99.90
11818;DHT22;5966;52.402;5.322;2022-11-12T07:21:06;8.10;99.90
11818;DHT22;5966;52.402;5.322;2022-11-12T07:23:35;8.10;99.90
11818;DHT22;5966;52.402;5.322;2022-11-12T07:26:06;8.10;99.90
11818;DHT22;5966;52.402;5.322;2022-11-12T07:28:34;8.00;99.90
11818;DHT22;5966;52.402;5.322;2022-11-12T07:31:04;8.00;99.90
11818;DHT22;5966;52.402;5.322;2022-11-12T07:33:32;7.90;99.90
11818;DHT22;5966;52.402;5.322;2022-11-12T07:36:03;7.70;99.90
11818;DHT22;5966;52.402;5.322;2022-11-12T07:38:32;7.70;99.90
11818;DHT22;5966;52.402;5.322;2022-11-12T07:41:01;7.60;99.90
11818;DHT22;5966;52.402;5.322;2022-11-12T07:43:32;7.50;99.90
11818;DHT22;5966;52.402;5.322;2022-11-12T07:46:01;7.50;99.90
11818;DHT22;5966;52.402;5.322;2022-11-12T07:48:36;7.50;99.90
11818;DHT22;5966;52.402;5.322;2022-11-12T07:51:06;7.40;99.90
11818;DHT22;5966;52.402;5.322;2022-11-12T07:53:34;7.40;99.90
11818;DHT22;5966;52.402;5.322;2022-11-12T07:56:02;7.40;99.90
11818;DHT22;5966;52.402;5.322;2022-11-12T07:58:32;7.40;99.90
11818;DHT22;5966;52.402;5.322;2022-11-12T08:01:06;7.50;99.90
11818;DHT22;5966;52.402;5.322;2022-11-12T08:03:35;7.50;99.90
11818;DHT22;5966;52.402;5.322;2022-11-12T08:06:03;7.50;99.90
11818;DHT22;5966;52.402;5.322;2022-11-12T08:08:31;7.50;99.90
11818;DHT22;5966;52.402;5.322;2022-11-12T08:10:59;7.50;99.90
11818;DHT22;5966;52.402;5.322;2022-11-12T08:13:27;7.50;99.90
11818;DHT22;5966;52.402;5.322;2022-11-12T08:15:57;7.30;99.90
11818;DHT22;5966;52.402;5.322;2022-11-12T08:18:25;7.20;99.90
11818;DHT22;5966;52.402;5.322;2022-11-12T08:20:58;7.10;99.90
11818;DHT22;5966;52.402;5.322;2022-11-12T08:23:27;7.10;99.90
11818;DHT22;5966;52.402;5.322;2022-11-12T08:25:57;7.10;99.90
11818;DHT22;5966;52.402;5.322;2022-11-12T08:28:26;7.20;99.90
11818;DHT22;5966;52.402;5.322;2022-11-12T08:30:57;7.30;99.90
11818;DHT22;5966;52.402;5.322;2022-11-12T08:33:29;7.40;99.90
11818;DHT22;5966;52.402;5.322;2022-11-12T08:36:01;7.40;99.90
11818;DHT22;5966;52.402;5.322;2022-11-12T08:38:29;7.30;99.90
11818;DHT22;5966;52.402;5.322;2022-11-12T08:40:59;7.20;99.90
11818;DHT22;5966;52.402;5.322;2022-11-12T08:43:27;7.20;99.90
11818;DHT22;5966;52.402;5.322;2022-11-12T08:45:58;7.10;99.90
11818;DHT22;5966;52.402;5.322;2022-11-12T08:48:27;7.10;99.90
11818;DHT22;5966;52.402;5.322;2022-11-12T08:50:55;7.10;99.90
11818;DHT22;5966;52.402;5.322;2022-11-12T08:53:24;7.10;99.90
11818;DHT22;5966;52.402;5.322;2022-11-12T08:55:54;7.10;99.90
11818;DHT22;5966;52.402;5.322;2022-11-12T08:58:23;7.10;99.90
11818;DHT22;5966;52.402;5.322;2022-11-12T09:00:53;7.20;99.90
11818;DHT22;5966;52.402;5.322;2022-11-12T09:03:24;7.20;99.90
11818;DHT22;5966;52.402;5.322;2022-11-12T09:05:52;7.20;99.90
11818;DHT22;5966;52.402;5.322;2022-11-12T09:08:22;7.10;99.90
11818;DHT22;5966;52.402;5.322;2022-11-12T09:10:51;7.10;99.90
11818;DHT22;5966;52.402;5.322;2022-11-12T09:13:19;7.20;99.90
11818;DHT22;5966;52.402;5.322;2022-11-12T09:15:47;7.20;99.90
11818;DHT22;5966;52.402;5.322;2022-11-12T09:18:17;7.30;99.90
11818;DHT22;5966;52.402;5.322;2022-11-12T09:20:46;7.40;99.90
11818;DHT22;5966;52.402;5.322;2022-11-12T09:23:15;7.40;99.90
11818;DHT22;5966;52.402;5.322;2022-11-12T09:25:43;7.40;99.90
11818;DHT22;5966;52.402;5.322;2022-11-12T09:28:12;7.50;99.90
11818;DHT22;5966;52.402;5.322;2022-11-12T09:30:42;7.60;99.90
11818;DHT22;5966;52.402;5.322;2022-11-12T09:33:12;7.70;99.90
11818;DHT22;5966;52.402;5.322;2022-11-12T09:35:40;7.80;99.90
11818;DHT22;5966;52.402;5.322;2022-11-12T09:38:09;7.90;99.90
11818;DHT22;5966;52.402;5.322;2022-11-12T09:40:46;8.00;99.90
11818;DHT22;5966;52.402;5.322;2022-11-12T09:43:20;8.00;99.90
11818;DHT22;5966;52.402;5.322;2022-11-12T09:45:51;8.10;99.90
11818;DHT22;5966;52.402;5.322;2022-11-12T09:48:44;8.20;99.90
11818;DHT22;5966;52.402;5.322;2022-11-12T09:51:20;8.30;99.90
11818;DHT22;5966;52.402;5.322;2022-11-12T09:53:54;8.40;99.90
11818;DHT22;5966;52.402;5.322;2022-11-12T09:56:23;8.40;99.90
11818;DHT22;5966;52.402;5.322;2022-11-12T09:58:51;8.50;99.90
11818;DHT22;5966;52.402;5.322;2022-11-12T10:01:23;8.60;99.90
11818;DHT22;5966;52.402;5.322;2022-11-12T10:04:06;8.70;99.90
11818;DHT22;5966;52.402;5.322;2022-11-12T10:06:43;8.70;99.90
11818;DHT22;5966;52.402;5.322;2022-11-12T10:09:19;8.80;99.90
11818;DHT22;5966;52.402;5.322;2022-11-12T10:12:04;8.80;99.90
11818;DHT22;5966;52.402;5.322;2022-11-12T10:15:09;8.90;99.90
11818;DHT22;5966;52.402;5.322;2022-11-12T10:18:02;8.90;99.90
11818;DHT22;5966;52.402;5.322;2022-11-12T10:20:40;9.00;99.90
11818;DHT22;5966;52.402;5.322;2022-11-12T10:23:16;9.00;99.90
11818;DHT22;5966;52.402;5.322;2022-11-12T10:25:49;9.10;99.90
11818;DHT22;5966;52.402;5.322;2022-11-12T10:28:28;9.20;99.90
11818;DHT22;5966;52.402;5.322;2022-11-12T10:31:09;9.20;99.90
11818;DHT22;5966;52.402;5.322;2022-11-12T10:33:38;9.30;99.90
11818;DHT22;5966;52.402;5.322;2022-11-12T10:36:18;9.30;99.90
11818;DHT22;5966;52.402;5.322;2022-11-12T10:38:52;9.40;99.90
11818;DHT22;5966;52.402;5.322;2022-11-12T10:41:24;9.50;99.90
11818;DHT22;5966;52.402;5.322;2022-11-12T10:43:56;9.50;99.90
11818;DHT22;5966;52.402;5.322;2022-11-12T10:46:45;9.60;99.90
11818;DHT22;5966;52.402;5.322;2022-11-12T10:49:22;9.70;99.90
11818;DHT22;5966;52.402;5.322;2022-11-12T10:51:54;9.70;99.90
11818;DHT22;5966;52.402;5.322;2022-11-12T10:54:28;9.80;99.90
11818;DHT22;5966;52.402;5.322;2022-11-12T10:57:18;9.90;99.90
11818;DHT22;5966;52.402;5.322;2022-11-12T10:59:46;10.00;99.90
11818;DHT22;5966;52.402;5.322;2022-11-12T11:02:30;10.10;99.90
11818;DHT22;5966;52.402;5.322;2022-11-12T11:04:58;10.10;99.90
11818;DHT22;5966;52.402;5.322;2022-11-12T11:07:26;10.20;99.90
11818;DHT22;5966;52.402;5.322;2022-11-12T11:09:55;10.20;99.90
11818;DHT22;5966;52.402;5.322;2022-11-12T11:12:28;10.30;99.90
11818;DHT22;5966;52.402;5.322;2022-11-12T11:15:14;10.40;99.90
11818;DHT22;5966;52.402;5.322;2022-11-12T11:17:51;10.40;99.90
11818;DHT22;5966;52.402;5.322;2022-11-12T11:20:25;10.50;99.90
11818;DHT22;5966;52.402;5.322;2022-11-12T11:22:58;10.50;99.90
11818;DHT22;5966;52.402;5.322;2022-11-12T11:25:33;10.60;99.90
11818;DHT22;5966;52.402;5.322;2022-11-12T11:28:15;10.70;99.90
11818;DHT22;5966;52.402;5.322;2022-11-12T11:30:52;10.80;99.90
11818;DHT22;5966;52.402;5.322;2022-11-12T11:33:34;10.80;99.90
11818;DHT22;5966;52.402;5.322;2022-11-12T11:36:17;10.90;99.90
11818;DHT22;5966;52.402;5.322;2022-11-12T11:38:56;10.90;99.90
11818;DHT22;5966;52.402;5.322;2022-11-12T11:41:41;11.00;99.90
11818;DHT22;5966;52.402;5.322;2022-11-12T11:44:20;11.10;99.90
11818;DHT22;5966;52.402;5.322;2022-11-12T11:47:01;11.10;99.90
11818;DHT22;5966;52.402;5.322;2022-11-12T11:49:49;11.20;99.90
11818;DHT22;5966;52.402;5.322;2022-11-12T11:52:35;11.30;99.90
11818;DHT22;5966;52.402;5.322;2022-11-12T11:58:29;11.50;99.90
11818;DHT22;5966;52.402;5.322;2022-11-12T12:01:09;11.60;99.90
11818;DHT22;5966;52.402;5.322;2022-11-12T12:03:53;11.60;99.90
11818;DHT22;5966;52.402;5.322;2022-11-12T12:06:28;11.70;99.90
11818;DHT22;5966;52.402;5.322;2022-11-12T12:09:04;11.80;99.90
11818;DHT22;5966;52.402;5.322;2022-11-12T12:11:38;11.80;99.90
11818;DHT22;5966;52.402;5.322;2022-11-12T12:14:21;11.90;99.90
11818;DHT22;5966;52.402;5.322;2022-11-12T12:17:05;12.00;99.90
11818;DHT22;5966;52.402;5.322;2022-11-12T12:19:46;12.10;99.90
11818;DHT22;5966;52.402;5.322;2022-11-12T12:22:20;12.10;99.90
11818;DHT22;5966;52.402;5.322;2022-11-12T12:24:54;12.10;99.90
11818;DHT22;5966;52.402;5.322;2022-11-12T12:27:28;12.20;99.90
11818;DHT22;5966;52.402;5.322;2022-11-12T12:29:59;12.20;99.90
11818;DHT22;5966;52.402;5.322;2022-11-12T12:32:34;12.20;99.90
11818;DHT22;5966;52.402;5.322;2022-11-12T12:35:12;12.20;99.90
11818;DHT22;5966;52.402;5.322;2022-11-12T12:37:45;12.30;99.90
11818;DHT22;5966;52.402;5.322;2022-11-12T12:40:17;12.40;99.90
11818;DHT22;5966;52.402;5.322;2022-11-12T12:42:50;12.40;99.90
11818;DHT22;5966;52.402;5.322;2022-11-12T12:45:29;12.40;99.90
11818;DHT22;5966;52.402;5.322;2022-11-12T12:48:05;12.50;99.90
11818;DHT22;5966;52.402;5.322;2022-11-12T12:50:36;12.50;99.90
11818;DHT22;5966;52.402;5.322;2022-11-12T12:53:05;12.60;99.90
11818;DHT22;5966;52.402;5.322;2022-11-12T12:55:43;12.60;99.90
11818;DHT22;5966;52.402;5.322;2022-11-12T12:58:22;12.60;99.90
11818;DHT22;5966;52.402;5.322;2022-11-12T13:00:58;12.60;99.90
11818;DHT22;5966;52.402;5.322;2022-11-12T13:03:54;12.60;99.90
11818;DHT22;5966;52.402;5.322;2022-11-12T13:06:26;12.60;99.90
11818;DHT22;5966;52.402;5.322;2022-11-12T13:08:58;12.50;99.90
11818;DHT22;5966;52.402;5.322;2022-11-12T13:11:47;12.60;99.90
11818;DHT22;5966;52.402;5.322;2022-11-12T13:17:47;12.70;99.90
11818;DHT22;5966;52.402;5.322;2022-11-12T13:20:34;12.60;99.90
11818;DHT22;5966;52.402;5.322;2022-11-12T13:23:07;12.70;99.90
11818;DHT22;5966;52.402;5.322;2022-11-12T13:25:37;12.70;99.90
11818;DHT22;5966;52.402;5.322;2022-11-12T13:28:09;12.80;99.90
11818;DHT22;5966;52.402;5.322;2022-11-12T13:31:19;12.90;99.90
11818;DHT22;5966;52.402;5.322;2022-11-12T13:33:50;12.90;99.90
11818;DHT22;5966;52.402;5.322;2022-11-12T13:36:28;13.00;99.90
11818;DHT22;5966;52.402;5.322;2022-11-12T13:39:11;13.00;99.90
11818;DHT22;5966;52.402;5.322;2022-11-12T13:41:40;13.00;99.90
11818;DHT22;5966;52.402;5.322;2022-11-12T13:44:27;13.10;99.90
11818;DHT22;5966;52.402;5.322;2022-11-12T13:46:55;13.20;99.90
11818;DHT22;5966;52.402;5.322;2022-11-12T13:49:24;13.20;99.90
11818;DHT22;5966;52.402;5.322;2022-11-12T13:51:53;13.20;99.90
11818;DHT22;5966;52.402;5.322;2022-11-12T13:54:30;13.20;99.90
11818;DHT22;5966;52.402;5.322;2022-11-12T13:57:27;13.30;99.90
11818;DHT22;5966;52.402;5.322;2022-11-12T14:00:09;13.20;99.90
11818;DHT22;5966;52.402;5.322;2022-11-12T14:02:49;13.30;99.90
11818;DHT22;5966;52.402;5.322;2022-11-12T14:05:20;13.40;99.90
11818;DHT22;5966;52.402;5.322;2022-11-12T14:10:44;13.40;99.90
11818;DHT22;5966;52.402;5.322;2022-11-12T14:13:35;13.50;99.90
11818;DHT22;5966;52.402;5.322;2022-11-12T14:16:26;13.50;99.90
11818;DHT22;5966;52.402;5.322;2022-11-12T14:19:12;13.50;99.90
11818;DHT22;5966;52.402;5.322;2022-11-12T14:21:58;13.50;99.90
11818;DHT22;5966;52.402;5.322;2022-11-12T14:24:27;13.50;99.90
11818;DHT22;5966;52.402;5.322;2022-11-12T14:26:55;13.50;99.90
11818;DHT22;5966;52.402;5.322;2022-11-12T14:29:23;13.60;99.90
11818;DHT22;5966;52.402;5.322;2022-11-12T14:32:00;13.60;99.90
11818;DHT22;5966;52.402;5.322;2022-11-12T14:34:30;13.60;99.90
11818;DHT22;5966;52.402;5.322;2022-11-12T14:36:58;13.60;99.90
11818;DHT22;5966;52.402;5.322;2022-11-12T14:39:28;13.60;99.90
11818;DHT22;5966;52.402;5.322;2022-11-12T14:41:58;13.60;99.90
11818;DHT22;5966;52.402;5.322;2022-11-12T14:44:31;13.60;99.90
11818;DHT22;5966;52.402;5.322;2022-11-12T14:47:00;13.50;99.90
11818;DHT22;5966;52.402;5.322;2022-11-12T14:49:32;13.50;99.90
11818;DHT22;5966;52.402;5.322;2022-11-12T14:52:11;13.50;99.90
11818;DHT22;5966;52.402;5.322;2022-11-12T14:54:46;13.40;99.90
11818;DHT22;5966;52.402;5.322;2022-11-12T14:57:19;13.40;99.90
11818;DHT22;5966;52.402;5.322;2022-11-12T14:59:49;13.40;99.90
11818;DHT22;5966;52.402;5.322;2022-11-12T15:02:21;13.30;99.90
11818;DHT22;5966;52.402;5.322;2022-11-12T15:05:14;13.30;99.90
11818;DHT22;5966;52.402;5.322;2022-11-12T15:07:53;13.20;99.90
11818;DHT22;5966;52.402;5.322;2022-11-12T15:10:33;13.20;99.90
11818;DHT22;5966;52.402;5.322;2022-11-12T15:13:04;13.20;99.90
11818;DHT22;5966;52.402;5.322;2022-11-12T15:15:34;13.20;99.90
11818;DHT22;5966;52.402;5.322;2022-11-12T15:18:05;13.20;99.90
11818;DHT22;5966;52.402;5.322;2022-11-12T15:20:33;13.20;99.90
11818;DHT22;5966;52.402;5.322;2022-11-12T15:23:01;13.10;99.90
11818;DHT22;5966;52.402;5.322;2022-11-12T15:25:31;13.10;99.90
11818;DHT22;5966;52.402;5.322;2022-11-12T15:28:11;13.10;99.90
11818;DHT22;5966;52.402;5.322;2022-11-12T15:30:40;13.00;99.90
11818;DHT22;5966;52.402;5.322;2022-11-12T15:33:16;13.00;99.90
11818;DHT22;5966;52.402;5.322;2022-11-12T15:35:44;12.90;99.90
11818;DHT22;5966;52.402;5.322;2022-11-12T15:38:20;12.90;99.90
11818;DHT22;5966;52.402;5.322;2022-11-12T15:40:52;12.80;99.90
11818;DHT22;5966;52.402;5.322;2022-11-12T15:43:24;12.70;99.90
11818;DHT22;5966;52.402;5.322;2022-11-12T15:45:55;12.70;99.90
11818;DHT22;5966;52.402;5.322;2022-11-12T15:48:23;12.60;99.90
11818;DHT22;5966;52.402;5.322;2022-11-12T15:50:51;12.50;99.90
11818;DHT22;5966;52.402;5.322;2022-11-12T15:53:19;12.50;99.90
11818;DHT22;5966;52.402;5.322;2022-11-12T15:55:47;12.40;99.90
11818;DHT22;5966;52.402;5.322;2022-11-12T15:58:19;12.40;99.90
11818;DHT22;5966;52.402;5.322;2022-11-12T16:00:48;12.30;99.90
11818;DHT22;5966;52.402;5.322;2022-11-12T16:03:18;12.20;99.90
11818;DHT22;5966;52.402;5.322;2022-11-12T16:05:46;12.10;99.90
11818;DHT22;5966;52.402;5.322;2022-11-12T16:08:14;12.10;99.90
11818;DHT22;5966;52.402;5.322;2022-11-12T16:10:44;12.00;99.90
11818;DHT22;5966;52.402;5.322;2022-11-12T16:13:14;11.90;99.90
11818;DHT22;5966;52.402;5.322;2022-11-12T16:15:44;11.80;99.90
11818;DHT22;5966;52.402;5.322;2022-11-12T16:18:13;11.80;99.90
11818;DHT22;5966;52.402;5.322;2022-11-12T16:20:41;11.70;99.90
11818;DHT22;5966;52.402;5.322;2022-11-12T16:23:09;11.70;99.90
11818;DHT22;5966;52.402;5.322;2022-11-12T16:25:37;11.70;99.90
11818;DHT22;5966;52.402;5.322;2022-11-12T16:28:11;11.60;99.90
11818;DHT22;5966;52.402;5.322;2022-11-12T16:30:41;11.60;99.90
11818;DHT22;5966;52.402;5.322;2022-11-12T16:33:12;11.50;99.90
11818;DHT22;5966;52.402;5.322;2022-11-12T16:35:40;11.50;99.90
11818;DHT22;5966;52.402;5.322;2022-11-12T16:38:12;11.40;99.90